Chitre, Panama
Current Conditions -  °F | °C
As of 10:00 AM on Friday 24 Oct 2014 (Local Time) from MPMG Reporting Station
Few Clouds Few Clouds  
Wind Chill: 88°   Ceiling: Unl
Heat Index: 98°   Visibility: 6mi
Dew Point: 75°   Wind: 3mph
Humidity: 66%   Direction: 230°SW
Pressure: 29.88"   Gusts: NA
Location:  7.97°N, 80.42°W
Report Text: MPMG 241500Z 23003KT 9000 FEW020 31/24 Q1012 NOSIG
Loading
Personal Weather Stations






























Interactive Weather Map
Tropical Storm Tracking
New forecast layout! Learn more

10-Day Weather Forecast

Advertisements
Track Severe Weather on mobile